»·PEaware :: N904CP KGTU-KHQZ

N904CP :: KGTU-KHQZ

FLIGHT INFORMATION

Flight Status: Arrived
Operator: Privately registered:
United States
More flights under this callsign
Pilot: Anonymous 11620 (11620)
Aircraft: PIPER PA-28 CHEROKEE ARCHER
(P28A)
More flights by this aircraft type
Origin: KGTU Georgetown Mun
United States
Destination: KHQZ Mesquite Metro
United States
More flights between these airports :: More routes between these airports
Route: CHEVE LOADS
File this flight plan on PilotEdge
Remarks:
Altitude:
(Current/Filed)
5,500ft
Speed:
(Current/Filed)
130kts
Departed: 02-Mar-18 09:48 AM
Arrived: 02-Mar-18 11:07 AM
Distance/Time
Traveled:
137nm/1:18
Distance/Time
To Go:
Arrived

Flight Plot

Page will automatically refresh every two minutes.

Flight plan parsing failed; only flown route is shown


Map Options




Map Legend


Flown Route
Filed Route
Departure Airport
Arrival Airport
Navaid (VOR, NDB)
Fix

Horizontal Profiles

Position Reports

Time Latitude Longitude Heading Altitude Ground
Speed
02-Mar-18 09:54 30.709338 -97.644175 51 3476ft 75kts
02-Mar-18 09:55 30.723222 -97.624914 52 4554ft 79kts
02-Mar-18 09:56 30.737491 -97.604903 53 5593ft 82kts
02-Mar-18 09:57 30.758014 -97.575585 52 5530ft 138kts
02-Mar-18 09:58 30.782230 -97.541235 52 5524ft 137kts
02-Mar-18 09:59 30.806448 -97.506959 52 5523ft 137kts
02-Mar-18 10:00 30.830393 -97.473059 52 5521ft 137kts
02-Mar-18 10:01 30.854480 -97.438934 52 5518ft 136kts
02-Mar-18 10:02 30.878538 -97.404817 52 5517ft 136kts
02-Mar-18 10:03 30.902575 -97.370698 52 5517ft 136kts
02-Mar-18 10:04 30.926397 -97.336859 53 5518ft 137kts
02-Mar-18 10:05 30.950509 -97.302581 53 5518ft 137kts
02-Mar-18 10:06 30.974660 -97.268216 53 5518ft 137kts
02-Mar-18 10:07 30.998705 -97.233767 48 5516ft 133kts
02-Mar-18 10:08 31.022117 -97.200561 49 5516ft 132kts
02-Mar-18 10:09 31.045362 -97.167453 49 5515ft 132kts
02-Mar-18 10:10 31.068575 -97.134317 49 5514ft 132kts
02-Mar-18 10:11 31.091817 -97.101103 49 5514ft 132kts
02-Mar-18 10:12 31.114362 -97.068857 49 5515ft 132kts
02-Mar-18 10:13 31.137725 -97.035409 49 5515ft 132kts
02-Mar-18 10:14 31.160870 -97.002249 49 5515ft 132kts
02-Mar-18 10:15 31.184126 -96.968901 49 5516ft 132kts
02-Mar-18 10:16 31.207403 -96.935491 49 5516ft 132kts
02-Mar-18 10:17 31.230743 -96.902153 53 5506ft 136kts
02-Mar-18 10:18 31.262479 -96.877122 30 5503ft 140kts
02-Mar-18 10:19 31.296781 -96.855213 31 5501ft 140kts
02-Mar-18 10:20 31.331186 -96.833107 30 5499ft 141kts
02-Mar-18 10:21 31.365674 -96.810909 32 5497ft 141kts
02-Mar-18 10:22 31.400221 -96.788639 31 5493ft 142kts
02-Mar-18 10:23 31.434970 -96.766218 32 5493ft 142kts
02-Mar-18 10:24 31.469761 -96.743767 31 5491ft 143kts
02-Mar-18 10:25 31.498900 -96.724940 30 5490ft 144kts
02-Mar-18 10:26 31.541431 -96.703907 2 5488ft 147kts
02-Mar-18 10:27 31.575025 -96.699092 14 5495ft 145kts
02-Mar-18 10:28 31.620833 -96.685781 18 5507ft 145kts
02-Mar-18 10:29 31.652912 -96.675326 16 5507ft 145kts
02-Mar-18 10:30 31.691852 -96.662321 16 5507ft 145kts
02-Mar-18 10:31 31.737285 -96.647065 17 5508ft 146kts
02-Mar-18 10:32 31.769763 -96.636131 16 5508ft 146kts
02-Mar-18 10:33 31.808527 -96.623079 17 5509ft 145kts
02-Mar-18 10:34 31.847421 -96.609952 17 5508ft 146kts
02-Mar-18 10:35 31.886296 -96.596826 17 5517ft 145kts
02-Mar-18 10:36 31.924814 -96.583811 16 5526ft 144kts
02-Mar-18 10:37 31.963245 -96.570834 17 5535ft 143kts
02-Mar-18 10:38 32.001398 -96.557918 16 5544ft 142kts
02-Mar-18 10:39 32.039350 -96.545074 16 5545ft 142kts
02-Mar-18 10:40 32.077486 -96.532152 16 5545ft 142kts
02-Mar-18 10:41 32.115010 -96.519426 16 5543ft 142kts
02-Mar-18 10:42 32.152998 -96.506534 16 5543ft 142kts
02-Mar-18 10:43 32.190929 -96.493647 16 5543ft 142kts
02-Mar-18 10:44 32.229005 -96.480698 16 5543ft 142kts
02-Mar-18 10:45 32.266448 -96.466304 23 5543ft 141kts
02-Mar-18 10:46 32.303100 -96.449320 18 5544ft 142kts
02-Mar-18 10:47 32.340957 -96.435932 16 5544ft 142kts
02-Mar-18 10:48 32.378838 -96.422965 16 5544ft 142kts
02-Mar-18 10:49 32.416865 -96.409958 16 5544ft 142kts
02-Mar-18 10:50 32.454843 -96.396957 16 5544ft 142kts
02-Mar-18 10:51 32.492976 -96.383893 16 5544ft 142kts
02-Mar-18 10:52 32.531078 -96.370828 17 5544ft 142kts
02-Mar-18 10:53 32.569167 -96.357754 17 5544ft 143kts
02-Mar-18 10:54 32.607148 -96.344707 17 5545ft 143kts
02-Mar-18 10:55 32.645004 -96.331691 17 5545ft 143kts
02-Mar-18 10:56 32.683262 -96.318524 17 5545ft 143kts
02-Mar-18 10:57 32.721476 -96.305361 17 5545ft 143kts
02-Mar-18 10:58 32.759821 -96.292143 17 5545ft 143kts
02-Mar-18 10:59 32.799230 -96.278525 18 5188ft 154kts
02-Mar-18 11:00 32.840638 -96.264210 18 4519ft 156kts
02-Mar-18 11:01 32.881825 -96.249969 18 3918ft 154kts
02-Mar-18 11:02 32.923113 -96.237508 353 3336ft 161kts
02-Mar-18 11:03 32.927499 -96.278160 250 3002ft 142kts
02-Mar-18 11:04 32.924759 -96.325525 267 3006ft 144kts
02-Mar-18 11:05 32.925271 -96.373400 268 3006ft 145kts
02-Mar-18 11:06 32.925911 -96.421299 269 3006ft 145kts
02-Mar-18 11:07 32.926543 -96.469478 269 3006ft 145kts
02-Mar-18 11:08 32.925828 -96.517638 242 3000ft 144kts
02-Mar-18 11:09 32.889250 -96.524269 178 2558ft 144kts
02-Mar-18 11:10 32.849509 -96.525785 178 2207ft 142kts
02-Mar-18 11:11 32.809959 -96.527408 179 1836ft 146kts
02-Mar-18 11:12 32.771397 -96.530079 179 936ft 101kts
02-Mar-18 11:13 32.751872 -96.530258 184 450ft 44kts
02-Mar-18 11:14 32.747919 -96.532516 267 450ft 0kts

Navigation Log

Ident Type
Flight plan parsing failed, navigation log unavailable